Time;durP1;ratioP1;P1;durP2;ratioP2;P2;SDS_P1;SDS_P2;PMS_P1;PMS_P2;Temp;Humidity;BMP_temperature;BMP_pressure;BME280_temperature;BME280_humidity;BME280_pressure;Samples;Min_cycle;Max_cycle;Signal;HPM_P1;HPM_P2
2022/03/25 00:01:58;;;;;;;53.40;19.50;;;;;;;-0.12;65.46;100487.45;103283;1303;24292;-28
2022/03/25 00:04:24;;;;;;;47.20;18.60;;;;;;;-0.11;65.07;100484.23;103321;1303;24220;-28
2022/03/25 00:06:49;;;;;;;35.10;17.20;;;;;;;-0.05;65.01;100481.90;103292;1303;24252;-29
2022/03/25 00:09:15;;;;;;;40.50;16.00;;;;;;;-0.16;65.24;100475.77;103370;1303;24350;-27
2022/03/25 00:11:41;;;;;;;46.60;16.80;;;;;;;-0.26;65.14;100479.19;103263;1303;24269;-27
2022/03/25 00:14:07;;;;;;;55.40;15.60;;;;;;;-0.30;65.07;100476.35;103319;1303;24252;-26
2022/03/25 00:16:33;;;;;;;45.20;17.90;;;;;;;-0.34;66.43;100472.73;103325;1303;24427;-28
2022/03/25 00:18:59;;;;;;;50.30;21.40;;;;;;;-0.35;66.17;100475.08;103285;1303;24318;-27
2022/03/25 00:21:24;;;;;;;62.10;23.30;;;;;;;-0.34;66.19;100475.55;103308;1303;24304;-27
2022/03/25 00:23:50;;;;;;;52.20;18.10;;;;;;;-0.33;65.37;100474.94;103297;1304;22509;-29
2022/03/25 00:26:16;;;;;;;41.50;17.00;;;;;;;-0.31;65.74;100471.66;103433;1303;24274;-29
2022/03/25 00:28:41;;;;;;;63.20;24.00;;;;;;;-0.33;66.79;100467.70;103369;1303;24259;-29
2022/03/25 00:31:07;;;;;;;76.80;24.10;;;;;;;-0.35;65.12;100468.04;103321;1303;24227;-26
2022/03/25 00:33:34;;;;;;;46.30;18.60;;;;;;;-0.42;64.40;100464.06;103323;1304;24484;-26
2022/03/25 00:36:01;;;;;;;85.00;24.40;;;;;;;-0.45;63.80;100462.91;103326;1303;22512;-29
2022/03/25 00:38:27;;;;;;;58.30;21.20;;;;;;;-0.44;63.94;100465.09;103348;1303;24206;-30
2022/03/25 00:40:54;;;;;;;82.90;22.20;;;;;;;-0.41;65.11;100460.69;103317;1303;24261;-29
2022/03/25 00:43:20;;;;;;;58.40;24.60;;;;;;;-0.42;65.71;100458.13;103317;1303;22899;-28
2022/03/25 00:45:46;;;;;;;78.00;29.20;;;;;;;-0.43;66.00;100458.34;103386;1303;24437;-30
2022/03/25 00:48:14;;;;;;;60.00;25.30;;;;;;;-0.44;66.56;100459.30;103365;1303;24238;-29
2022/03/25 00:50:41;;;;;;;64.90;24.50;;;;;;;-0.45;66.31;100463.07;103402;1303;24363;-29
2022/03/25 00:53:08;;;;;;;77.10;27.20;;;;;;;-0.52;66.44;100462.59;103337;1303;23829;-29
2022/03/25 00:55:34;;;;;;;149.60;47.80;;;;;;;-0.57;66.31;100455.90;103343;1303;22508;-28
2022/03/25 00:58:00;;;;;;;101.80;32.00;;;;;;;-0.67;66.50;100460.80;103375;1303;22493;-25
2022/03/25 01:00:26;;;;;;;126.50;36.70;;;;;;;-0.75;66.68;100460.94;103408;1303;24413;-25
2022/03/25 01:02:52;;;;;;;100.80;29.50;;;;;;;-0.78;69.71;100455.36;103334;1303;22739;-26
2022/03/25 01:05:18;;;;;;;73.20;25.80;;;;;;;-0.78;67.79;100455.52;103333;1303;24277;-26
2022/03/25 01:07:44;;;;;;;75.20;27.00;;;;;;;-0.84;66.56;100451.98;103351;1303;24274;-26
2022/03/25 01:10:11;;;;;;;95.70;26.30;;;;;;;-0.81;68.07;100454.10;103336;1303;24245;-26
2022/03/25 01:12:37;;;;;;;54.20;21.00;;;;;;;-0.77;67.98;100451.44;103381;1303;24219;-26
2022/03/25 01:15:04;;;;;;;52.60;20.50;;;;;;;-0.76;67.44;100448.16;103450;1303;24220;-29
2022/03/25 01:17:30;;;;;;;74.10;19.70;;;;;;;-0.82;67.03;100451.73;103316;1303;24302;-26
2022/03/25 01:19:55;;;;;;;75.20;22.60;;;;;;;-0.87;67.12;100451.34;103300;1302;24305;-24
2022/03/25 01:22:21;;;;;;;52.20;22.10;;;;;;;-0.93;67.30;100448.77;103298;1303;24279;-26
2022/03/25 01:24:48;;;;;;;57.60;22.80;;;;;;;-0.97;67.17;100447.20;103321;1303;24328;-29
2022/03/25 01:27:14;;;;;;;59.20;22.10;;;;;;;-1.01;67.45;100444.67;103339;1303;24313;-28
2022/03/25 01:29:40;;;;;;;54.10;22.60;;;;;;;-1.05;67.52;100447.38;103339;1303;24270;-26
2022/03/25 01:32:07;;;;;;;62.70;22.80;;;;;;;-1.08;68.60;100443.48;103357;1303;24250;-30
2022/03/25 01:34:33;;;;;;;69.80;21.80;;;;;;;-1.07;68.84;100443.44;103397;1303;26254;-25
2022/03/25 01:36:59;;;;;;;38.50;17.80;;;;;;;-1.11;67.64;100443.16;103404;1303;22789;-30
2022/03/25 01:39:25;;;;;;;51.10;19.10;;;;;;;-1.16;68.20;100441.55;103141;1303;24205;-26
2022/03/25 01:41:51;;;;;;;51.50;18.50;;;;;;;-1.18;67.16;100441.66;103183;1303;24241;-26
2022/03/25 01:44:23;;;;;;;59.70;18.20;;;;;;;-1.18;67.43;100443.43;103205;1303;24315;-27
2022/03/25 01:46:49;;;;;;;40.30;16.50;;;;;;;-1.12;71.42;100443.74;103322;1303;24121;-25
2022/03/25 01:49:15;;;;;;;49.40;18.00;;;;;;;-1.06;69.40;100439.34;103291;1303;24272;-28
2022/03/25 01:51:41;;;;;;;50.00;20.40;;;;;;;-1.01;70.79;100443.45;103367;1303;24309;-30
2022/03/25 01:54:13;;;;;;;52.40;20.30;;;;;;;-1.00;71.78;100441.23;103178;1304;24200;-26
2022/03/25 01:56:39;;;;;;;44.30;19.00;;;;;;;-0.96;70.44;100443.46;103386;1303;24247;-25
2022/03/25 01:59:05;;;;;;;52.90;21.60;;;;;;;-0.95;69.83;100447.09;103400;1304;24240;-27
2022/03/25 02:01:30;;;;;;;55.90;19.70;;;;;;;-1.00;70.30;100445.79;103436;1303;24359;-30
2022/03/25 02:03:56;;;;;;;43.50;17.80;;;;;;;-1.07;71.77;100445.75;103321;1303;24293;-26
2022/03/25 02:06:22;;;;;;;59.80;19.80;;;;;;;-1.10;69.83;100444.73;103276;1305;24236;-26
2022/03/25 02:08:48;;;;;;;54.90;19.60;;;;;;;-1.17;68.93;100443.20;103352;1303;22723;-31
2022/03/25 02:11:14;;;;;;;53.50;15.80;;;;;;;-1.21;69.49;100448.73;103286;1303;24268;-29
2022/03/25 02:13:39;;;;;;;53.60;19.20;;;;;;;-1.24;69.78;100448.92;103266;1305;24199;-26
2022/03/25 02:16:05;;;;;;;40.80;16.00;;;;;;;-1.29;69.14;100453.28;103352;1304;24256;-30
2022/03/25 02:18:32;;;;;;;43.10;18.00;;;;;;;-1.38;68.65;100454.34;103145;1305;22610;-26
2022/03/25 02:20:59;;;;;;;46.00;19.20;;;;;;;-1.46;68.34;100454.11;103181;1305;24233;-27
2022/03/25 02:23:25;;;;;;;48.50;19.10;;;;;;;-1.56;68.46;100454.92;103264;1303;24252;-29
2022/03/25 02:25:52;;;;;;;49.10;18.70;;;;;;;-1.58;71.17;100449.79;103290;1303;24295;-29
2022/03/25 02:28:17;;;;;;;53.60;22.30;;;;;;;-1.54;69.51;100452.20;103376;1303;24365;-29
2022/03/25 02:30:43;;;;;;;62.80;19.00;;;;;;;-1.59;69.10;100451.25;103321;1303;24408;-28
2022/03/25 02:33:09;;;;;;;52.80;17.30;;;;;;;-1.65;69.23;100454.05;103299;1303;24320;-25
2022/03/25 02:35:37;;;;;;;61.20;17.90;;;;;;;-1.68;68.43;100456.36;103350;1303;24244;-26
2022/03/25 02:38:04;;;;;;;41.30;17.00;;;;;;;-1.70;68.58;100460.88;103387;1303;22813;-30
2022/03/25 02:40:30;;;;;;;45.40;17.20;;;;;;;-1.70;69.09;100464.20;103359;1303;24470;-26
2022/03/25 02:42:56;;;;;;;47.40;16.90;;;;;;;-1.71;69.34;100462.36;103318;1303;24244;-26
2022/03/25 02:45:22;;;;;;;52.10;19.70;;;;;;;-1.73;70.12;100461.91;103270;1303;24219;-26
2022/03/25 02:47:48;;;;;;;49.70;17.80;;;;;;;-1.71;70.74;100466.39;103296;1303;24375;-29
2022/03/25 02:50:14;;;;;;;47.40;17.90;;;;;;;-1.70;70.97;100468.58;103122;1304;22648;-30
2022/03/25 02:52:41;;;;;;;59.90;20.50;;;;;;;-1.69;71.04;100463.96;103401;1303;22727;-30
2022/03/25 02:55:08;;;;;;;60.50;21.10;;;;;;;-1.69;70.68;100465.38;103317;1305;24723;-29
2022/03/25 02:57:35;;;;;;;57.90;18.40;;;;;;;-1.74;70.22;100466.06;103318;1303;24257;-25
2022/03/25 03:00:04;;;;;;;48.70;17.20;;;;;;;-1.76;70.43;100464.73;103268;1303;24364;-30
2022/03/25 03:02:29;;;;;;;50.70;18.40;;;;;;;-1.78;70.36;100467.67;103325;1303;24255;-30
2022/03/25 03:04:55;;;;;;;54.50;19.50;;;;;;;-1.79;70.64;100464.39;103356;1303;24199;-26
2022/03/25 03:07:21;;;;;;;44.20;16.50;;;;;;;-1.83;70.50;100463.41;103310;1305;22792;-28
2022/03/25 03:09:47;;;;;;;47.20;18.30;;;;;;;-1.91;69.90;100455.97;103364;1303;24425;-26
2022/03/25 03:12:13;;;;;;;48.70;17.60;;;;;;;-1.97;70.04;100454.90;103271;1303;24225;-25
2022/03/25 03:14:39;;;;;;;36.20;16.40;;;;;;;-2.01;70.44;100455.34;103375;1303;24218;-28
2022/03/25 03:17:05;;;;;;;53.50;18.10;;;;;;;-2.02;71.03;100449.76;103384;1303;22510;-29
2022/03/25 03:19:32;;;;;;;65.40;20.10;;;;;;;-2.02;71.70;100450.28;103380;1303;24255;-26
2022/03/25 03:21:58;;;;;;;67.00;23.90;;;;;;;-2.05;72.05;100452.60;103374;1303;24318;-26
2022/03/25 03:24:24;;;;;;;75.80;22.10;;;;;;;-2.01;72.12;100456.25;103335;1303;24321;-25
2022/03/25 03:26:50;;;;;;;48.10;21.60;;;;;;;-2.01;72.24;100449.20;103362;1303;24252;-29
2022/03/25 03:29:16;;;;;;;63.20;21.00;;;;;;;-2.03;72.10;100448.42;103378;1304;24404;-29
2022/03/25 03:31:42;;;;;;;63.10;22.80;;;;;;;-2.06;71.55;100451.44;103346;1303;24228;-26
2022/03/25 03:34:08;;;;;;;65.30;20.10;;;;;;;-2.08;71.89;100447.19;103233;1305;24252;-26
2022/03/25 03:36:33;;;;;;;46.40;17.70;;;;;;;-2.10;71.50;100446.75;103352;1303;24334;-27
2022/03/25 03:38:59;;;;;;;40.40;16.50;;;;;;;-2.08;71.48;100448.75;103313;1303;24351;-27
2022/03/25 03:41:25;;;;;;;45.40;16.30;;;;;;;-2.07;71.18;100448.13;103349;1303;24262;-29
2022/03/25 03:43:51;;;;;;;52.80;20.20;;;;;;;-2.06;71.50;100447.05;103364;1303;24274;-30
2022/03/25 03:46:17;;;;;;;48.40;19.20;;;;;;;-2.08;72.07;100450.68;103355;1304;24323;-25
2022/03/25 03:48:43;;;;;;;63.30;21.70;;;;;;;-2.10;72.23;100447.95;103325;1303;22521;-29
2022/03/25 03:51:09;;;;;;;64.80;26.50;;;;;;;-2.11;71.66;100447.83;103273;1303;24182;-28
2022/03/25 03:53:34;;;;;;;57.30;22.00;;;;;;;-2.14;71.81;100449.43;103392;1303;24414;-25
2022/03/25 03:56:00;;;;;;;56.30;21.50;;;;;;;-2.14;71.96;100451.33;103315;1303;24381;-26
2022/03/25 03:58:26;;;;;;;58.70;20.60;;;;;;;-2.15;72.29;100454.27;103400;1303;24304;-29
2022/03/25 04:00:51;;;;;;;53.80;20.60;;;;;;;-2.20;72.02;100452.05;103326;1303;24251;-25
2022/03/25 04:03:17;;;;;;;53.90;21.70;;;;;;;-2.25;72.05;100456.58;103337;1303;22606;-29
2022/03/25 04:05:44;;;;;;;45.60;20.80;;;;;;;-2.29;72.10;100451.38;103357;1303;22635;-28
2022/03/25 04:08:10;;;;;;;48.10;16.20;;;;;;;-2.34;72.54;100448.99;103371;1303;24286;-26
2022/03/25 04:10:36;;;;;;;54.00;19.70;;;;;;;-2.33;73.16;100448.11;103359;1303;22501;-26
2022/03/25 04:13:02;;;;;;;56.50;19.00;;;;;;;-2.32;72.68;100446.50;102436;1303;1290701;-29
2022/03/25 04:15:27;;;;;;;45.50;17.20;;;;;;;-2.32;73.07;100450.52;103406;1303;24200;-28
2022/03/25 04:17:53;;;;;;;57.20;18.50;;;;;;;-2.29;73.22;100452.75;103323;1303;24267;-26
2022/03/25 04:20:18;;;;;;;48.20;19.40;;;;;;;-2.33;73.38;100452.80;103352;1305;24221;-28
2022/03/25 04:22:45;;;;;;;71.10;22.70;;;;;;;-2.34;73.79;100449.52;103368;1303;24267;-30
2022/03/25 04:25:11;;;;;;;71.60;24.60;;;;;;;-2.35;73.75;100451.19;103349;1305;22505;-29
2022/03/25 04:27:44;;;;;;;58.20;20.10;;;;;;;-2.36;73.67;100452.48;103283;1303;24314;-26
2022/03/25 04:30:10;;;;;;;69.40;20.10;;;;;;;-2.36;73.84;100452.63;103352;1303;25348;-26
2022/03/25 04:32:36;;;;;;;65.00;18.90;;;;;;;-2.36;74.18;100455.64;103305;1303;24294;-25
2022/03/25 04:35:01;;;;;;;39.70;16.70;;;;;;;-2.38;73.98;100458.69;103404;1303;24229;-27
2022/03/25 04:37:27;;;;;;;41.70;14.90;;;;;;;-2.32;74.10;100460.48;103317;1303;24417;-25
2022/03/25 04:39:53;;;;;;;50.80;15.90;;;;;;;-2.30;73.67;100460.36;103312;1303;24327;-25
2022/03/25 04:42:18;;;;;;;49.50;17.30;;;;;;;-2.27;74.12;100459.34;103322;1304;25882;-25
2022/03/25 04:44:44;;;;;;;34.70;15.50;;;;;;;-2.25;74.36;100459.58;103282;1303;24253;-25
2022/03/25 04:47:10;;;;;;;44.90;19.60;;;;;;;-2.22;75.63;100461.51;103348;1303;24300;-29
2022/03/25 04:49:35;;;;;;;44.00;19.50;;;;;;;-2.19;74.76;100464.14;103377;1303;24242;-26
2022/03/25 04:52:01;;;;;;;58.30;18.50;;;;;;;-2.19;74.52;100463.05;103324;1303;24310;-26
2022/03/25 04:54:27;;;;;;;41.00;17.90;;;;;;;-2.14;74.10;100462.77;103346;1303;24257;-26
2022/03/25 04:56:53;;;;;;;49.50;18.20;;;;;;;-2.09;74.63;100467.88;103268;1303;24386;-29
2022/03/25 04:59:19;;;;;;;45.40;17.10;;;;;;;-1.99;75.47;100470.14;103329;1303;22745;-26
2022/03/25 05:01:44;;;;;;;48.10;17.20;;;;;;;-1.83;76.03;100470.95;103311;1303;24235;-28
2022/03/25 05:04:10;;;;;;;47.30;17.60;;;;;;;-1.70;74.39;100471.23;103333;1305;24417;-26
2022/03/25 05:06:36;;;;;;;46.70;17.40;;;;;;;-1.59;73.95;100468.65;103274;1305;24304;-29
2022/03/25 05:09:02;;;;;;;57.80;25.50;;;;;;;-1.48;75.24;100470.05;103325;1305;24259;-26
2022/03/25 05:11:28;;;;;;;56.40;21.60;;;;;;;-1.42;74.35;100470.73;103343;1303;22740;-29
2022/03/25 05:13:54;;;;;;;33.50;17.20;;;;;;;-1.44;74.81;100472.45;103333;1303;24308;-26
2022/03/25 05:16:20;;;;;;;40.10;16.20;;;;;;;-1.49;74.91;100474.17;103298;1303;24245;-26
2022/03/25 05:18:45;;;;;;;45.70;18.00;;;;;;;-1.54;74.79;100475.17;103312;1303;22517;-30
2022/03/25 05:21:11;;;;;;;57.30;18.10;;;;;;;-1.49;75.87;100477.83;103356;1303;24395;-29
2022/03/25 05:23:36;;;;;;;38.20;14.80;;;;;;;-1.38;77.11;100475.63;103344;1303;24246;-29
2022/03/25 05:26:02;;;;;;;39.00;16.30;;;;;;;-1.23;76.41;100477.13;103318;1303;24200;-29
2022/03/25 05:28:29;;;;;;;43.70;17.80;;;;;;;-1.14;75.32;100477.45;103314;1303;24356;-26
2022/03/25 05:30:54;;;;;;;52.50;18.70;;;;;;;-1.08;75.82;100479.04;103271;1303;24309;-28
2022/03/25 05:33:20;;;;;;;45.40;16.50;;;;;;;-1.02;74.89;100478.83;103320;1303;24318;-26
2022/03/25 05:35:45;;;;;;;33.50;15.10;;;;;;;-1.00;73.81;100472.88;103167;1303;23976;-29
2022/03/25 05:38:12;;;;;;;56.50;17.40;;;;;;;-1.01;73.76;100478.05;103320;1303;24252;-28
2022/03/25 05:40:38;;;;;;;50.50;18.20;;;;;;;-1.00;73.34;100483.46;103322;1304;22506;-24
2022/03/25 05:43:04;;;;;;;41.00;15.50;;;;;;;-0.96;73.51;100487.09;103349;1303;22800;-25
2022/03/25 05:45:30;;;;;;;34.80;15.00;;;;;;;-0.84;74.64;100487.04;103318;1303;22600;-25
2022/03/25 05:47:56;;;;;;;66.50;19.70;;;;;;;-0.71;74.44;100487.77;103409;1303;24324;-25
2022/03/25 05:50:22;;;;;;;59.50;19.70;;;;;;;-0.58;74.17;100489.96;103323;1303;24229;-27
2022/03/25 05:52:48;;;;;;;45.20;18.70;;;;;;;-0.46;74.05;100494.75;103400;1303;24452;-29
2022/03/25 05:55:16;;;;;;;35.10;15.00;;;;;;;-0.32;74.96;100490.34;103263;1305;24179;-29
2022/03/25 05:57:43;;;;;;;40.20;16.60;;;;;;;-0.19;73.71;100494.45;103355;1303;24377;-26
2022/03/25 06:00:09;;;;;;;48.60;22.30;;;;;;;-0.12;73.04;100494.66;103273;1305;24259;-31
2022/03/25 06:02:35;;;;;;;37.90;15.70;;;;;;;-0.13;72.72;100498.95;103372;1303;24369;-26
2022/03/25 06:05:00;;;;;;;58.20;18.90;;;;;;;-0.15;73.01;100498.59;103291;1303;24376;-26
2022/03/25 06:07:26;;;;;;;72.20;19.50;;;;;;;-0.14;73.74;100500.80;103349;1305;24203;-26
2022/03/25 06:09:52;;;;;;;79.70;23.30;;;;;;;-0.12;74.30;100499.57;103262;1304;22634;-28
2022/03/25 06:12:18;;;;;;;75.80;23.40;;;;;;;-0.08;74.38;100504.98;103346;1303;24378;-27
2022/03/25 06:14:44;;;;;;;199.50;54.10;;;;;;;0.06;75.15;100501.77;103293;1303;22521;-30
2022/03/25 06:17:10;;;;;;;169.60;41.60;;;;;;;0.26;75.35;100506.08;103331;1303;22639;-25
2022/03/25 06:19:35;;;;;;;136.00;39.60;;;;;;;0.45;75.66;100507.59;103276;1302;22517;-25
2022/03/25 06:22:01;;;;;;;119.10;31.20;;;;;;;0.64;75.57;100505.55;103174;1305;24402;-25
2022/03/25 06:24:27;;;;;;;68.90;25.10;;;;;;;0.78;75.53;100507.93;103136;1305;24271;-28
2022/03/25 06:26:52;;;;;;;68.30;22.40;;;;;;;1.07;75.79;100508.03;103325;1304;24388;-28
2022/03/25 06:29:19;;;;;;;87.50;22.40;;;;;;;1.39;75.72;100505.55;103296;1304;24352;-25
2022/03/25 06:31:46;;;;;;;58.00;20.20;;;;;;;1.80;75.16;100504.84;103305;1303;22506;-25
2022/03/25 06:34:12;;;;;;;46.80;18.40;;;;;;;2.37;74.75;100506.30;103307;1303;24306;-30
2022/03/25 06:36:38;;;;;;;63.20;19.60;;;;;;;2.93;73.32;100508.12;103335;1303;24252;-28
2022/03/25 06:39:03;;;;;;;60.90;20.70;;;;;;;3.30;72.03;100505.38;103302;1303;24242;-29
2022/03/25 06:41:29;;;;;;;51.80;21.40;;;;;;;3.56;72.27;100505.56;103276;1303;24372;-28
2022/03/25 06:43:56;;;;;;;43.50;19.50;;;;;;;3.74;70.50;100509.59;103300;1303;24230;-30
2022/03/25 06:46:22;;;;;;;43.70;22.20;;;;;;;3.73;69.30;100511.08;103186;1305;24372;-30
2022/03/25 06:48:48;;;;;;;49.60;22.90;;;;;;;3.87;69.06;100512.98;103303;1303;24256;-30
2022/03/25 06:51:14;;;;;;;49.10;20.70;;;;;;;4.07;68.61;100513.42;103318;1304;24215;-31
2022/03/25 06:53:40;;;;;;;72.20;29.00;;;;;;;4.21;67.53;100514.59;103365;1303;24345;-27
2022/03/25 06:56:07;;;;;;;61.60;26.30;;;;;;;4.19;67.39;100517.20;103393;1303;24394;-27
2022/03/25 06:58:36;;;;;;;54.30;23.60;;;;;;;4.29;67.22;100518.68;103276;1303;24210;-26
2022/03/25 07:01:02;;;;;;;41.50;22.40;;;;;;;4.49;66.72;100521.26;103368;1303;24263;-29
2022/03/25 07:03:28;;;;;;;64.10;23.70;;;;;;;4.68;65.78;100518.92;103323;1305;24334;-25
2022/03/25 07:05:54;;;;;;;43.70;20.80;;;;;;;4.88;64.22;100516.70;103329;1303;24407;-25
2022/03/25 07:08:21;;;;;;;52.30;24.10;;;;;;;4.97;63.65;100518.26;103182;1303;24252;-28
2022/03/25 07:10:48;;;;;;;51.80;21.30;;;;;;;5.10;63.20;100519.54;103350;1303;24583;-25
2022/03/25 07:13:14;;;;;;;55.20;24.10;;;;;;;5.20;62.89;100521.55;103430;1303;24338;-25
2022/03/25 07:15:40;;;;;;;49.30;23.50;;;;;;;5.32;63.26;100521.88;103355;1304;24227;-29
2022/03/25 07:18:06;;;;;;;40.20;20.70;;;;;;;5.55;63.55;100522.00;103343;1303;22519;-25
2022/03/25 07:20:32;;;;;;;51.50;22.50;;;;;;;5.86;63.08;100525.81;103201;1305;24179;-29
2022/03/25 07:22:59;;;;;;;49.20;23.00;;;;;;;6.16;62.76;100530.72;103317;1303;22638;-25
2022/03/25 07:25:27;;;;;;;65.90;25.90;;;;;;;6.46;61.97;100534.55;103362;1303;24182;-29
2022/03/25 07:27:53;;;;;;;45.00;22.40;;;;;;;6.76;61.92;100532.82;103360;1303;24460;-25
2022/03/25 07:30:19;;;;;;;48.80;21.70;;;;;;;7.17;58.90;100534.27;103287;1303;24215;-29
2022/03/25 07:32:45;;;;;;;48.50;19.80;;;;;;;7.47;56.79;100531.87;103331;1303;24263;-25
2022/03/25 07:35:11;;;;;;;41.20;21.60;;;;;;;7.68;55.94;100531.14;103343;1303;22530;-29
2022/03/25 07:37:38;;;;;;;50.00;22.60;;;;;;;8.05;54.38;100529.09;103381;1305;24201;-27
2022/03/25 07:40:06;;;;;;;53.00;23.90;;;;;;;8.25;52.70;100530.30;103386;1303;24384;-27
2022/03/25 07:42:32;;;;;;;56.20;21.80;;;;;;;8.47;52.49;100536.48;103358;1303;24259;-29
2022/03/25 07:44:58;;;;;;;52.00;23.70;;;;;;;8.77;50.63;100537.77;103292;1303;24416;-25
2022/03/25 07:47:24;;;;;;;54.40;23.60;;;;;;;8.97;50.18;100536.64;103330;1303;24228;-28
2022/03/25 07:49:49;;;;;;;52.50;25.60;;;;;;;9.16;49.07;100535.54;103403;1304;24221;-27
2022/03/25 07:52:16;;;;;;;44.20;21.80;;;;;;;9.36;49.66;100536.10;103290;1303;22775;-25
2022/03/25 07:54:42;;;;;;;50.20;25.00;;;;;;;9.63;49.28;100535.71;103353;1303;22534;-28
2022/03/25 07:57:07;;;;;;;42.80;22.60;;;;;;;10.05;48.32;100536.27;103295;1303;24223;-25
2022/03/25 07:59:33;;;;;;;54.00;27.00;;;;;;;10.46;47.21;100536.33;103124;1305;22518;-28
2022/03/25 08:01:59;;;;;;;53.50;25.30;;;;;;;10.70;46.66;100535.61;103309;1303;24312;-28
2022/03/25 08:04:24;;;;;;;53.00;24.10;;;;;;;11.03;45.33;100536.69;103326;1303;24315;-28
2022/03/25 08:06:51;;;;;;;46.20;23.90;;;;;;;10.91;45.30;100539.60;103359;1303;22714;-27
2022/03/25 08:09:17;;;;;;;36.60;22.50;;;;;;;11.14;45.14;100539.35;103395;1303;24317;-29
2022/03/25 08:11:45;;;;;;;36.60;19.30;;;;;;;11.25;45.19;100533.96;103342;1303;24181;-29
2022/03/25 08:14:13;;;;;;;37.60;20.50;;;;;;;11.68;44.86;100531.38;103117;1305;25522;-25
2022/03/25 08:16:38;;;;;;;40.90;19.50;;;;;;;12.01;43.77;100533.03;103345;1303;22507;-25
2022/03/25 08:19:05;;;;;;;34.30;18.20;;;;;;;12.29;42.47;100532.81;103295;1303;24335;-28
2022/03/25 08:21:32;;;;;;;36.30;19.70;;;;;;;12.81;41.07;100535.34;103353;1303;24304;-28
2022/03/25 08:28:59;;;;;;;34.20;20.30;;;;;;;13.71;41.69;100537.38;103323;1303;22510;-28
2022/03/25 08:31:25;;;;;;;33.30;15.10;;;;;;;13.68;39.00;100538.09;103412;1305;24324;-25
2022/03/25 08:33:51;;;;;;;38.40;18.00;;;;;;;14.23;38.39;100536.77;103308;1304;24309;-28
2022/03/25 08:36:17;;;;;;;28.00;16.00;;;;;;;14.29;38.08;100540.89;103342;1304;24310;-28
2022/03/25 08:38:44;;;;;;;20.20;13.00;;;;;;;14.92;37.91;100542.48;103291;1303;24233;-28
2022/03/25 08:41:10;;;;;;;32.70;18.20;;;;;;;15.07;35.60;100544.31;103392;1303;24379;-26
2022/03/25 08:43:36;;;;;;;34.00;16.00;;;;;;;14.79;35.66;100546.02;103306;1305;24195;-28
2022/03/25 08:46:03;;;;;;;28.80;14.00;;;;;;;-48.95;61.38;107837.05;102737;1305;593501;-24
2022/03/25 08:48:29;;;;;;;37.90;18.60;;;;;;;-138.02;59.60;71263.66;100982;1303;1005488;-28
2022/03/25 08:50:55;;;;;;;40.80;18.30;;;;;;;-128.00;-1.00;-1.00;99730;1303;1004708;-25
2022/03/25 08:53:20;;;;;;;59.70;18.90;;;;;;;-128.00;-1.00;-1.00;99744;1303;1004706;-24
2022/03/25 08:55:46;;;;;;;22.60;12.00;;;;;;;-128.00;-1.00;-1.00;99723;1305;1004299;-25
2022/03/25 08:58:12;;;;;;;29.30;16.70;;;;;;;-128.00;-1.00;-1.00;99801;1303;1003792;-24
2022/03/25 09:00:38;;;;;;;41.10;16.90;;;;;;;-128.00;-1.00;-1.00;99783;1303;1005134;-24
2022/03/25 09:03:05;;;;;;;24.60;13.90;;;;;;;-128.00;-1.00;-1.00;99771;1305;1004372;-28
2022/03/25 09:05:31;;;;;;;33.80;15.30;;;;;;;-128.00;-1.00;-1.00;99822;1303;1004051;-24
2022/03/25 09:07:57;;;;;;;34.60;14.30;;;;;;;-128.00;-1.00;-1.00;99738;1305;1004393;-30
2022/03/25 09:10:23;;;;;;;28.90;13.20;;;;;;;-128.00;-1.00;-1.00;99823;1303;1005182;-28
2022/03/25 09:12:49;;;;;;;23.20;12.60;;;;;;;-128.00;-1.00;-1.00;99810;1303;1005282;-27
2022/03/25 09:15:16;;;;;;;32.50;16.40;;;;;;;-128.00;-1.00;-1.00;99619;1305;1005469;-27
2022/03/25 09:17:43;;;;;;;31.60;15.50;;;;;;;-128.00;-1.00;-1.00;99808;1303;1004971;-28
2022/03/25 09:20:10;;;;;;;26.10;15.40;;;;;;;-128.00;-1.00;-1.00;99777;1303;1004633;-25
2022/03/25 09:22:35;;;;;;;25.20;14.70;;;;;;;-128.00;-1.00;-1.00;99814;1303;1005438;-25
2022/03/25 09:25:04;;;;;;;24.30;13.70;;;;;;;-128.00;-1.00;-1.00;99750;1303;1004210;-24
2022/03/25 09:27:30;;;;;;;22.70;13.60;;;;;;;-128.00;-1.00;-1.00;99817;1303;1005203;-28
2022/03/25 09:29:55;;;;;;;20.40;12.20;;;;;;;-128.00;-1.00;-1.00;99730;1305;1004777;-23
2022/03/25 09:32:21;;;;;;;17.00;10.10;;;;;;;-128.00;-1.00;-1.00;99793;1303;1004703;-24
2022/03/25 09:37:17;;;;;;;16.80;11.80;;;;;;;-128.00;-1.00;-1.00;99810;1303;1005075;-25
2022/03/25 09:39:43;;;;;;;19.20;9.50;;;;;;;-128.00;-1.00;-1.00;99811;1303;1005027;-28
2022/03/25 09:42:09;;;;;;;21.00;9.90;;;;;;;-128.00;-1.00;-1.00;99842;1303;1004284;-28
2022/03/25 09:44:35;;;;;;;25.70;13.30;;;;;;;-128.00;-1.00;-1.00;99803;1304;1004269;-24
2022/03/25 09:47:01;;;;;;;16.60;10.20;;;;;;;-128.00;-1.00;-1.00;99664;1305;1003883;-27
2022/03/25 09:49:27;;;;;;;17.10;11.20;;;;;;;-128.00;-1.00;-1.00;99790;1303;1004272;-25
2022/03/25 09:51:53;;;;;;;22.30;12.10;;;;;;;-128.00;-1.00;-1.00;99806;1303;1005280;-25
2022/03/25 09:54:19;;;;;;;21.50;11.00;;;;;;;-128.00;-1.00;-1.00;99847;1303;1004452;-30
2022/03/25 09:56:44;;;;;;;13.50;9.50;;;;;;;-128.00;-1.00;-1.00;99841;1303;1004472;-24
2022/03/25 09:59:16;;;;;;;18.60;12.40;;;;;;;-128.00;-1.00;-1.00;99692;1305;1003906;-28
2022/03/25 10:01:41;;;;;;;29.80;13.10;;;;;;;-128.00;-1.00;-1.00;99756;1305;1004114;-24
2022/03/25 10:04:07;;;;;;;19.40;12.70;;;;;;;-128.00;-1.00;-1.00;99565;1304;1004731;-28
2022/03/25 10:06:44;;;;;;;26.40;14.30;;;;;;;-41.38;16.99;60319.94;101286;1303;1004547;-24
2022/03/25 10:09:10;;;;;;;26.50;15.80;;;;;;;17.43;26.67;100528.48;103355;1304;24264;-25
2022/03/25 10:11:37;;;;;;;15.90;10.90;;;;;;;17.96;25.39;100531.73;103297;1305;23755;-28
2022/03/25 10:14:09;;;;;;;20.90;12.90;;;;;;;18.08;24.50;100528.35;103308;1303;24320;-30
2022/03/25 10:16:35;;;;;;;19.70;11.90;;;;;;;17.92;24.35;100526.86;103345;1304;22518;-28
2022/03/25 10:19:00;;;;;;;19.80;12.40;;;;;;;17.35;24.62;100526.66;103317;1303;24320;-28
2022/03/25 10:21:27;;;;;;;27.40;12.20;;;;;;;17.31;25.46;100526.67;103200;1305;24317;-24
2022/03/25 10:23:53;;;;;;;20.40;12.00;;;;;;;17.07;25.31;100524.48;103316;1303;22632;-24
2022/03/25 10:26:19;;;;;;;18.30;12.10;;;;;;;17.32;24.90;100528.17;103333;1303;24228;-25
2022/03/25 10:28:46;;;;;;;18.20;11.70;;;;;;;17.35;25.73;100525.20;103386;1303;24342;-25
2022/03/25 10:31:15;;;;;;;27.60;17.50;;;;;;;17.63;25.36;100525.31;103317;1303;24199;-25
2022/03/25 10:33:46;;;;;;;23.20;12.80;;;;;;;18.25;23.65;100519.75;103320;1303;24311;-28
2022/03/25 10:36:14;;;;;;;14.20;10.60;;;;;;;17.76;23.69;100518.52;103372;1303;24330;-25
2022/03/25 10:38:44;;;;;;;14.50;9.50;;;;;;;17.97;23.21;100514.85;103157;1303;22517;-25
2022/03/25 10:41:11;;;;;;;14.90;9.30;;;;;;;18.44;22.51;100512.38;103358;1303;24505;-29
2022/03/25 10:43:43;;;;;;;14.10;7.20;;;;;;;18.99;20.24;100517.96;103237;1305;24253;-25
2022/03/25 10:46:15;;;;;;;15.70;11.40;;;;;;;18.19;21.34;100509.67;103342;1303;22518;-25
2022/03/25 10:48:40;;;;;;;16.70;11.20;;;;;;;17.91;22.23;100513.73;103331;1303;24199;-28
2022/03/25 10:51:08;;;;;;;19.90;10.90;;;;;;;18.06;22.41;100512.18;103342;1303;24379;-28
2022/03/25 10:53:35;;;;;;;14.00;9.70;;;;;;;18.09;21.89;100515.16;103309;1305;24254;-25
2022/03/25 10:56:06;;;;;;;16.80;10.90;;;;;;;18.25;21.50;100512.52;103328;1303;24367;-25
2022/03/25 10:58:34;;;;;;;19.00;9.60;;;;;;;18.16;22.09;100507.88;103277;1303;24200;-25
2022/03/25 11:01:01;;;;;;;18.80;9.50;;;;;;;18.27;21.33;100505.90;103363;1303;24274;-24
2022/03/25 11:03:27;;;;;;;22.80;11.10;;;;;;;18.56;21.50;100508.25;103364;1303;23873;-28
2022/03/25 11:05:53;;;;;;;11.20;8.50;;;;;;;18.73;21.01;100510.45;103211;1303;24319;-24
2022/03/25 11:08:19;;;;;;;11.90;5.90;;;;;;;18.83;20.87;100507.77;103367;1303;22515;-28